Tropical Cyclones
[Index]
Season 2021-2022 Tropical Cyclone SETH Track Map
Season 2021-2022 Summaries: [BoM-AU]
<<- Previous TC | BoM 2021-2022 Season | Next TC ->>

click for intensity scale information  Lat/long Grid: Show Hide

 Date Labels: Show Hide

Bureau of Meteorology Tropical Cyclone Data

Name: SETH

23 Dec 2021 12:00 UTC to 07 Jan 2022 06:00 UTC

    date/time    lat    long    hPa   cat  kts
2021-12-23 12    8.7   130.0   1004         15          
2021-12-23 18    9.2   129.9   1004         15          
2021-12-24 00    9.8   129.8   1004         15          
2021-12-24 06   10.2   129.9   1002         15          
2021-12-24 12   10.5   130.1   1004         15          
2021-12-24 18   11.0   130.1   1000         20          
2021-12-25 00   11.5   130.1   1000         25          
2021-12-25 06   11.9   130.0    996         25          
2021-12-25 12   12.5   130.2    998         25          
2021-12-25 18   12.7   130.5    996         25          
2021-12-26 00   13.3   130.6    997         20          
2021-12-26 06   13.7   130.6    996         20          
2021-12-26 12   13.9   130.6    999         20          
2021-12-26 18   14.0   130.6    998         20          
2021-12-27 00   13.5   130.3    999         20          
2021-12-27 06   13.4   130.6    997         15          
2021-12-27 12   13.6   131.5   1000         15          
2021-12-27 18   13.8   132.6    998         15          
2021-12-28 00   14.0   133.7    999         15          
2021-12-28 06   14.3   135.4    995    1    15          
2021-12-28 12   14.5   136.8    997         20          
2021-12-28 18   15.0   138.1    997         25          
2021-12-29 00   15.2   139.8    997         25          
2021-12-29 06   15.4   141.5    995    1    25          
2021-12-29 12   15.9   143.4    998         15          
2021-12-29 18   17.2   146.1    998         15          
2021-12-30 00   17.5   147.4    997         30          
2021-12-30 06   17.8   149.2    996         30          
2021-12-30 12   17.9   150.6    994    1    30          
2021-12-30 18   18.4   151.8    994    1    30          
2021-12-31 00   19.4   153.3    992    1    40          
2021-12-31 06   20.0   154.5    986    1    50          
2021-12-31 12   20.6   155.3    982    2    55          
2021-12-31 18   21.0   155.8    986    1    45          
2022-01-01 00   21.3   156.7    988    1    45          
2022-01-01 06   21.7   157.5    988    1    45          
2022-01-01 12   22.8   158.3    990    1    40          
2022-01-01 18   24.0   158.8    990    1    40          
2022-01-02 00   25.8   159.0    990    1    40          
2022-01-02 06   26.5   158.6    988    1    40          
2022-01-02 12   27.1   158.3    990    1    35          
2022-01-02 18   27.5   157.7    990    1    30          
2022-01-03 00   27.9   157.3    990    1    25          
2022-01-03 06   28.1   157.3    990    1    25          
2022-01-03 12   28.1   157.0    992    1    25          
2022-01-03 18   28.0   156.2    994    1    25          
2022-01-04 00   27.6   156.0    996         30          
2022-01-04 06   26.9   155.8    996         25          
2022-01-04 12   26.6   155.2    998         25          
2022-01-04 18   26.0   155.7    996         25          
2022-01-05 00   25.6   155.7    998         25          
2022-01-05 06   25.2   155.8    998         25          
2022-01-05 12   25.2   155.2    998         25          
2022-01-05 18   25.2   154.7    998         25          
2022-01-06 00   25.0   154.3   1000         25          
2022-01-06 06   24.8   153.9   1000         25          
2022-01-06 12   25.0   153.3   1002         20          
2022-01-06 18   25.0   153.0   1002         20          
2022-01-06 21   25.3   152.8   1004         20          
2022-01-07 00   25.5   152.5   1004         15          
2022-01-07 06   25.8   152.2   1004         15          
Winds are 10-min average.

Tropical cyclone tracks developed by Michael Bath using data from the Bureau of Meteorology and Google Maps.


Document: tropical_cyclone_seth.htm
Updated: 23 June 2022
[Australian Severe Weather index] [Copyright Notice] [Email Contacts] [Search This Site] [Privacy Policy]


Main Index Home Page Stock Weather Photos Extreme Storms Discussion Storm News and Storm Chasing Reports Tropical Cyclones / Hurricanes / Typhoons Weather Data and Links Wild Fires / Bushfires Weather Observation Techniques Weather Picture Catalogue Tornado Pictures and Reports Stock Video Footage and DVDs for sale